Stevenson, Washington
Current Conditions -  °F | °C
As of 8:59 AM on Friday 24 Oct 2014 (Local Time) from K4S2 Reporting Station
Broken Clouds Broken Clouds  
Wind Chill: 46°   Ceiling: 700
Heat Index: 46°   Visibility: 7mi
Dew Point: 46°   Wind: 0mph
Humidity: 100%   Direction: NA
Pressure: 30.07"   Gusts: NA
Location:  45.7°N, 121.88°W
Report Text: K4S2 241559Z AUTO 00000KT 7SM BKN007 08/08 A3007 RMK AO2 SLP198 T00800080
Loading
Personal Weather Stations






























Interactive Weather Map
Tropical Storm Tracking
New forecast layout! Learn more

10-Day Weather Forecast

Advertisements
Track Severe Weather on mobile